sensor_id;sensor_type;location;lat;lon;timestamp;P1;durP1;ratioP1;P2;durP2;ratioP2
24086;SDS011;22893;50.572;7.234;2022-12-11T15:57:31;8.63;;;3.00;;
24086;SDS011;22893;50.572;7.234;2022-12-11T15:59:58;4.40;;;2.55;;
24086;SDS011;22893;50.572;7.234;2022-12-11T16:02:26;8.45;;;2.58;;
24086;SDS011;22893;50.572;7.234;2022-12-11T16:04:54;7.97;;;2.33;;
24086;SDS011;22893;50.572;7.234;2022-12-11T16:07:22;5.62;;;2.67;;
24086;SDS011;22893;50.572;7.234;2022-12-11T16:09:51;7.87;;;3.60;;
24086;SDS011;22893;50.572;7.234;2022-12-11T16:12:19;13.18;;;3.20;;
24086;SDS011;22893;50.572;7.234;2022-12-11T16:14:46;5.42;;;2.52;;
24086;SDS011;22893;50.572;7.234;2022-12-11T16:17:14;6.00;;;2.87;;
24086;SDS011;22893;50.572;7.234;2022-12-11T16:19:42;10.38;;;3.10;;
24086;SDS011;22893;50.572;7.234;2022-12-11T16:22:11;9.58;;;2.00;;
24086;SDS011;22893;50.572;7.234;2022-12-11T16:24:39;4.85;;;2.55;;
24086;SDS011;22893;50.572;7.234;2022-12-11T16:27:07;3.90;;;2.50;;
24086;SDS011;22893;50.572;7.234;2022-12-11T16:29:35;5.40;;;2.15;;
24086;SDS011;22893;50.572;7.234;2022-12-11T16:32:05;4.08;;;2.12;;
24086;SDS011;22893;50.572;7.234;2022-12-11T16:34:34;6.47;;;2.55;;
24086;SDS011;22893;50.572;7.234;2022-12-11T16:37:03;4.37;;;2.33;;
24086;SDS011;22893;50.572;7.234;2022-12-11T16:39:32;12.68;;;3.02;;
24086;SDS011;22893;50.572;7.234;2022-12-11T16:42:02;5.03;;;2.45;;
24086;SDS011;22893;50.572;7.234;2022-12-11T16:44:30;4.35;;;2.33;;
24086;SDS011;22893;50.572;7.234;2022-12-11T16:46:58;6.10;;;2.27;;
24086;SDS011;22893;50.572;7.234;2022-12-11T16:49:25;6.15;;;2.50;;
24086;SDS011;22893;50.572;7.234;2022-12-11T16:51:53;6.80;;;3.10;;
24086;SDS011;22893;50.572;7.234;2022-12-11T16:54:20;5.67;;;2.58;;
24086;SDS011;22893;50.572;7.234;2022-12-11T16:56:48;6.95;;;2.75;;
24086;SDS011;22893;50.572;7.234;2022-12-11T16:59:16;7.83;;;3.22;;
24086;SDS011;22893;50.572;7.234;2022-12-11T17:01:43;6.72;;;2.72;;
24086;SDS011;22893;50.572;7.234;2022-12-11T17:04:11;15.70;;;3.75;;
24086;SDS011;22893;50.572;7.234;2022-12-11T17:06:38;7.83;;;3.10;;
24086;SDS011;22893;50.572;7.234;2022-12-11T17:09:06;5.75;;;3.27;;
24086;SDS011;22893;50.572;7.234;2022-12-11T17:11:33;9.10;;;3.98;;
24086;SDS011;22893;50.572;7.234;2022-12-11T17:14:03;10.03;;;3.75;;
24086;SDS011;22893;50.572;7.234;2022-12-11T17:16:30;8.28;;;3.33;;
24086;SDS011;22893;50.572;7.234;2022-12-11T17:18:58;9.43;;;3.55;;
24086;SDS011;22893;50.572;7.234;2022-12-11T17:21:28;9.85;;;3.50;;
24086;SDS011;22893;50.572;7.234;2022-12-11T17:23:55;4.55;;;2.55;;
24086;SDS011;22893;50.572;7.234;2022-12-11T17:26:23;10.10;;;3.83;;
24086;SDS011;22893;50.572;7.234;2022-12-11T17:28:52;10.48;;;4.05;;
24086;SDS011;22893;50.572;7.234;2022-12-11T17:31:21;8.58;;;3.87;;
24086;SDS011;22893;50.572;7.234;2022-12-11T17:33:49;8.13;;;3.40;;
24086;SDS011;22893;50.572;7.234;2022-12-11T17:36:19;20.12;;;4.47;;
24086;SDS011;22893;50.572;7.234;2022-12-11T17:38:47;5.62;;;2.77;;
24086;SDS011;22893;50.572;7.234;2022-12-11T17:41:15;8.08;;;3.67;;
24086;SDS011;22893;50.572;7.234;2022-12-11T17:43:45;18.52;;;4.03;;
24086;SDS011;22893;50.572;7.234;2022-12-11T17:46:13;9.75;;;2.83;;
24086;SDS011;22893;50.572;7.234;2022-12-11T17:48:41;6.25;;;2.87;;
24086;SDS011;22893;50.572;7.234;2022-12-11T17:51:08;6.95;;;3.55;;
24086;SDS011;22893;50.572;7.234;2022-12-11T17:53:39;9.00;;;3.87;;
24086;SDS011;22893;50.572;7.234;2022-12-11T17:56:06;9.73;;;3.15;;
24086;SDS011;22893;50.572;7.234;2022-12-11T17:58:34;9.85;;;3.22;;
24086;SDS011;22893;50.572;7.234;2022-12-11T18:01:05;6.17;;;2.67;;
24086;SDS011;22893;50.572;7.234;2022-12-11T18:03:33;6.15;;;3.00;;
24086;SDS011;22893;50.572;7.234;2022-12-11T18:06:11;6.47;;;2.75;;
24086;SDS011;22893;50.572;7.234;2022-12-11T18:08:40;9.15;;;3.70;;
24086;SDS011;22893;50.572;7.234;2022-12-11T18:11:11;11.80;;;5.35;;
24086;SDS011;22893;50.572;7.234;2022-12-11T18:13:41;26.30;;;7.67;;
24086;SDS011;22893;50.572;7.234;2022-12-11T18:16:11;37.60;;;7.90;;
24086;SDS011;22893;50.572;7.234;2022-12-11T18:18:43;19.50;;;7.40;;
24086;SDS011;22893;50.572;7.234;2022-12-11T18:21:13;26.90;;;8.48;;
24086;SDS011;22893;50.572;7.234;2022-12-11T18:23:42;20.43;;;8.48;;
24086;SDS011;22893;50.572;7.234;2022-12-11T18:26:10;25.40;;;9.38;;
24086;SDS011;22893;50.572;7.234;2022-12-11T18:28:39;22.00;;;8.23;;
24086;SDS011;22893;50.572;7.234;2022-12-11T18:31:08;21.68;;;8.95;;
24086;SDS011;22893;50.572;7.234;2022-12-11T18:33:37;16.82;;;7.05;;
24086;SDS011;22893;50.572;7.234;2022-12-11T18:36:05;26.85;;;7.45;;
24086;SDS011;22893;50.572;7.234;2022-12-11T18:38:34;21.33;;;7.78;;
24086;SDS011;22893;50.572;7.234;2022-12-11T18:41:02;14.13;;;6.62;;
24086;SDS011;22893;50.572;7.234;2022-12-11T18:43:31;21.45;;;7.75;;
24086;SDS011;22893;50.572;7.234;2022-12-11T18:45:58;17.27;;;6.85;;
24086;SDS011;22893;50.572;7.234;2022-12-11T18:48:27;18.27;;;7.95;;
24086;SDS011;22893;50.572;7.234;2022-12-11T18:50:55;23.40;;;7.53;;
24086;SDS011;22893;50.572;7.234;2022-12-11T18:53:23;18.65;;;6.67;;
24086;SDS011;22893;50.572;7.234;2022-12-11T18:55:51;12.55;;;6.80;;
24086;SDS011;22893;50.572;7.234;2022-12-11T18:58:19;13.72;;;6.17;;
24086;SDS011;22893;50.572;7.234;2022-12-11T19:00:46;17.48;;;6.70;;
24086;SDS011;22893;50.572;7.234;2022-12-11T19:03:14;14.20;;;5.58;;
24086;SDS011;22893;50.572;7.234;2022-12-11T19:05:41;17.20;;;6.50;;
24086;SDS011;22893;50.572;7.234;2022-12-11T19:08:10;12.20;;;6.28;;
24086;SDS011;22893;50.572;7.234;2022-12-11T19:10:46;12.35;;;6.08;;
24086;SDS011;22893;50.572;7.234;2022-12-11T19:13:11;17.25;;;6.05;;
24086;SDS011;22893;50.572;7.234;2022-12-11T19:15:40;15.65;;;5.58;;
24086;SDS011;22893;50.572;7.234;2022-12-11T19:18:09;13.70;;;5.37;;
24086;SDS011;22893;50.572;7.234;2022-12-11T19:20:37;13.90;;;5.87;;
24086;SDS011;22893;50.572;7.234;2022-12-11T19:23:08;13.20;;;5.72;;
24086;SDS011;22893;50.572;7.234;2022-12-11T19:25:42;8.85;;;4.95;;
24086;SDS011;22893;50.572;7.234;2022-12-11T19:28:12;15.63;;;6.22;;
24086;SDS011;22893;50.572;7.234;2022-12-11T19:30:47;12.25;;;5.28;;
24086;SDS011;22893;50.572;7.234;2022-12-11T19:33:15;15.23;;;5.95;;
24086;SDS011;22893;50.572;7.234;2022-12-11T19:35:43;10.43;;;4.85;;
24086;SDS011;22893;50.572;7.234;2022-12-11T19:38:11;12.33;;;6.65;;
24086;SDS011;22893;50.572;7.234;2022-12-11T19:40:44;10.72;;;5.53;;
24086;SDS011;22893;50.572;7.234;2022-12-11T19:43:09;15.40;;;5.33;;
24086;SDS011;22893;50.572;7.234;2022-12-11T19:45:37;14.95;;;5.83;;
24086;SDS011;22893;50.572;7.234;2022-12-11T19:48:06;12.28;;;4.55;;
24086;SDS011;22893;50.572;7.234;2022-12-11T19:50:34;14.75;;;5.37;;
24086;SDS011;22893;50.572;7.234;2022-12-11T19:53:02;16.02;;;5.30;;
24086;SDS011;22893;50.572;7.234;2022-12-11T19:55:30;11.45;;;4.78;;
24086;SDS011;22893;50.572;7.234;2022-12-11T19:57:58;7.08;;;4.03;;
24086;SDS011;22893;50.572;7.234;2022-12-11T20:00:25;11.80;;;5.35;;
24086;SDS011;22893;50.572;7.234;2022-12-11T20:02:53;11.00;;;3.77;;
24086;SDS011;22893;50.572;7.234;2022-12-11T20:05:20;8.55;;;4.28;;
24086;SDS011;22893;50.572;7.234;2022-12-11T20:07:48;9.90;;;4.58;;
24086;SDS011;22893;50.572;7.234;2022-12-11T20:10:17;10.38;;;4.55;;
24086;SDS011;22893;50.572;7.234;2022-12-11T20:12:44;10.65;;;3.87;;
24086;SDS011;22893;50.572;7.234;2022-12-11T20:15:12;11.63;;;4.10;;
24086;SDS011;22893;50.572;7.234;2022-12-11T20:17:42;8.13;;;3.75;;
24086;SDS011;22893;50.572;7.234;2022-12-11T20:20:09;7.95;;;4.28;;
24086;SDS011;22893;50.572;7.234;2022-12-11T20:22:37;9.23;;;4.33;;
24086;SDS011;22893;50.572;7.234;2022-12-11T20:25:05;9.48;;;3.92;;
24086;SDS011;22893;50.572;7.234;2022-12-11T20:27:32;9.90;;;4.28;;
24086;SDS011;22893;50.572;7.234;2022-12-11T20:30:00;8.65;;;3.77;;
24086;SDS011;22893;50.572;7.234;2022-12-11T20:32:27;9.78;;;3.35;;
24086;SDS011;22893;50.572;7.234;2022-12-11T20:34:58;9.00;;;3.27;;
24086;SDS011;22893;50.572;7.234;2022-12-11T20:37:26;7.83;;;3.90;;
24086;SDS011;22893;50.572;7.234;2022-12-11T20:39:53;14.38;;;4.15;;
24086;SDS011;22893;50.572;7.234;2022-12-11T20:42:21;9.65;;;3.98;;
24086;SDS011;22893;50.572;7.234;2022-12-11T20:44:49;11.03;;;3.60;;
24086;SDS011;22893;50.572;7.234;2022-12-11T20:47:17;8.18;;;3.30;;
24086;SDS011;22893;50.572;7.234;2022-12-11T20:49:46;8.25;;;3.77;;
24086;SDS011;22893;50.572;7.234;2022-12-11T20:52:15;12.23;;;3.12;;
24086;SDS011;22893;50.572;7.234;2022-12-11T20:54:43;7.40;;;3.15;;
24086;SDS011;22893;50.572;7.234;2022-12-11T20:57:11;6.95;;;3.25;;
24086;SDS011;22893;50.572;7.234;2022-12-11T20:59:41;11.03;;;3.60;;
24086;SDS011;22893;50.572;7.234;2022-12-11T21:02:10;4.60;;;2.55;;
24086;SDS011;22893;50.572;7.234;2022-12-11T21:04:39;8.73;;;3.45;;
24086;SDS011;22893;50.572;7.234;2022-12-11T21:07:07;8.40;;;3.27;;
24086;SDS011;22893;50.572;7.234;2022-12-11T21:09:35;8.95;;;2.65;;
24086;SDS011;22893;50.572;7.234;2022-12-11T21:12:04;9.75;;;3.33;;
